• Join FlightAware (Why Join?)
  • Login
  • US Flag 
09:52PM EDT


 

Airport Tracker/Info


-or-


 

Live Flight TrackerFlight Track Log ✈ N101L ✈ 22-Apr-2013 ✈ KIAD - KCMH

Flight Track Log - Related Links

Times and Time Zones

All times are in EDT time to prevent confusion due to time zone crossing. See the N101L flight status page for this flight to view local times or setup timezone preferences in your user account.

Time Position Orientation Groundspeed Altitude Reporting Facility
EDT Latitude Longitude Course Direction KTS MPH feet Rate Location/Type
08:03AM 38.9058 -77.6803 255° West 273 314 7,600  Level Washington Center
08:04AM 38.9000 -77.7683 265° West 273 314 10,400 2,940 Climbing Washington Center
08:05AM 38.9164 -77.8886 280° West 305 351 13,500 3,300 Climbing Washington Center
08:06AM 38.9308 -78.0039 279° West 325 374 17,000 2,400 Climbing Washington Center
08:07AM 38.9492 -78.1300 281° West 343 395 18,400 1,260 Climbing Washington Center
08:08AM 38.9628 -78.2667 277° West 368 423 19,600 2,400 Climbing Washington Center
08:09AM 38.9681 -78.4111 273° West 389 448 23,200 3,540 Climbing Washington Center
08:10AM 38.9708 -78.5500 272° West 401 461 26,700 2,580 Climbing Washington Center
08:11AM 38.9756 -78.6969 272° West 406 467 28,400 1,620 Climbing Washington Center
08:12AM 38.9797 -78.8494 272° West 420 483 30,000 780 Climbing Washington Center
08:13AM 38.9839 -79.0072 272° West 432 497 30,000  Level Washington Center
08:14AM 38.9875 -79.1622 272° West 442 509 30,000  Level Washington Center
08:15AM 38.9933 -79.3200 273° West 442 509 30,000  Level Washington Center
08:16AM 38.9967 -79.4753 272° West 442 509 30,000  Level Washington Center
08:17AM 38.9981 -79.6222 271° West 442 509 30,000  Level Washington Center
08:18AM 39.0011 -79.7772 272° West 442 509 30,000  Level Washington Center
08:19AM 39.0056 -79.9486 272° West 442 509 30,000  Level Washington Center
08:21AM 39.0064 -80.2389 270° West 439 505 30,000  Level Indianapolis Center
08:22AM 39.0081 -80.3947 271° West 437 503 30,000  Level Indianapolis Center
08:23AM 39.0103 -80.5494 271° West 434 499 30,000 -120 Level Indianapolis Center
08:24AM 39.0131 -80.7056 271° West 437 503 29,800 -540 Descending Indianapolis Center
08:25AM 39.0339 -80.8592 280° West 444 511 29,000 -780 Descending Indianapolis Center
08:26AM 39.0908 -80.9994 298° West 444 511 28,200 -540 Descending Indianapolis Center
08:28AM 39.1733 -81.1528 305° West 440 506 28,000 -120 Descending Indianapolis Center
08:29AM 39.2397 -81.2842 303° West 445 512 28,000 -300 Level Indianapolis Center
08:30AM 39.2869 -81.4275 293° West 440 506 27,400 -1,320 Descending Indianapolis Center
08:31AM 39.3347 -81.5672 294° West 433 498 25,300 -2,400 Descending Indianapolis Center
08:32AM 39.3794 -81.7036 293° West 419 482 22,600 -2,520 Descending Indianapolis Center
08:33AM 39.4203 -81.8319 292° West 392 451 20,200 -2,340 Descending Indianapolis Center
08:34AM 39.4625 -81.9575 294° West 384 442 17,900 -2,280 Descending Indianapolis Center
08:35AM 39.5064 -82.0978 292° West 372 428 15,800 -2,220 Descending Indianapolis Center
08:35AM 39.5350 -82.1789 295° West 363 418 14,200 -2,100 Descending Indianapolis Center
08:36AM 39.5522 -82.2206 298° West 360 414 13,500 -2,100 Descending Indianapolis Center
08:36AM 39.5947 -82.2933 307° West 353 406 12,100 -2,100 Descending Indianapolis Center
08:37AM 39.6128 -82.3233 308° West 355 409 11,400 -1,920 Descending Indianapolis Center
08:37AM 39.6492 -82.3936 304° West 346 398 10,200 -1,380 Descending Indianapolis Center
08:38AM 39.6689 -82.4269 308° West 348 400 10,000 -180 Descending Indianapolis Center
08:38AM 39.7111 -82.5033 306° West 344 396 10,000  Level Indianapolis Center
08:39AM 39.7247 -82.5269 307° West 342 394 10,000  Level Indianapolis Center
08:39AM 39.7561 -82.5839 306° West 299 344 10,000  Level Indianapolis Center
08:40AM 39.7731 -82.6133 307° West 298 343 10,000 -240 Level Indianapolis Center
08:40AM 39.8008 -82.6703 302° West 280 322 9,800 -1,020 Descending Indianapolis Center
08:41AM 39.8119 -82.7028 294° West 286 329 9,000 -2,100 Descending Indianapolis Center
08:41AM 39.8325 -82.7633 294° West 275 316 7,700 -1,980 Descending Indianapolis Center
08:42AM 39.8486 -82.8089 295° West 273 314 7,000 -1,140 Descending Indianapolis Center
08:42AM 39.8603 -82.8450 293° West 266 306 6,700 -1,680 Descending Indianapolis Center
08:43AM 39.8797 -82.8975 296° West 268 308 5,300 -2,280 Descending Indianapolis Center
08:43AM 39.8900 -82.9328 291° West 267 307 4,400 -2,160 Descending Indianapolis Center
08:44AM 39.9100 -82.9858 296° West 267 307 3,100 -1,380 Descending Indianapolis Center
08:44AM 39.9222 -83.0153 298° West 255 293 3,000 -240 Descending Indianapolis Center
08:45AM 39.9542 -83.0353 334° Northwest 238 274 2,900  Descending Indianapolis Center
08:45AM 39.9778 -83.0269 15° North 196 226 3,000 -420 Climbing Indianapolis Center
08:46AM 40.0008 -83.0031 38° Northeast 206 237 2,500 -1,020 Descending Indianapolis Center
08:46AM 39.9983 -82.9722 96° East 156 180 1,900 -1,020 Descending Indianapolis Center
08:47AM 39.9972 -82.9506 94° East 159 183 1,500 -840 Descending Indianapolis Center
08:47AM 39.9950 -82.9283 97° East 117 135 1,100 -540 Descending Indianapolis Center
08:48AM 39.9961 -82.9064 86° East 141 162 1,000 -180 Descending Indianapolis Center